createdAt,value
2019-02-26T00:03:04.999Z,57.27
2019-02-26T00:13:10.822Z,57.93
2019-02-26T00:23:16.408Z,54.83
2019-02-26T00:33:23.067Z,54.97
2019-02-26T00:43:30.650Z,50.87
2019-02-26T00:53:36.674Z,49.33
2019-02-26T01:03:44.352Z,47.73
2019-02-26T01:13:50.776Z,47.50
2019-02-26T01:23:59.645Z,45.10
2019-02-26T01:34:04.703Z,48.27
2019-02-26T01:44:10.550Z,42.77
2019-02-26T01:54:16.829Z,45.57
2019-02-26T02:04:22.699Z,46.27
2019-02-26T02:14:28.425Z,47.83
2019-02-26T02:24:34.117Z,50.13
2019-02-26T02:34:42.930Z,47.10
2019-02-26T02:44:49.286Z,48.43
2019-02-26T02:54:54.614Z,51.63
2019-02-26T03:05:00.419Z,51.57
2019-02-26T03:15:10.037Z,53.30
2019-02-26T03:25:20.510Z,52.17
2019-02-26T03:35:24.598Z,51.77
2019-02-26T03:45:30.573Z,50.20
2019-02-26T03:55:38.799Z,50.93
2019-02-26T04:05:43.542Z,52.97
2019-02-26T04:15:51.511Z,50.47
2019-02-26T04:26:35.117Z,53.17
2019-02-26T04:36:52.556Z,50.87
2019-02-26T04:47:00.222Z,56.77
2019-02-26T04:57:05.783Z,50.97
2019-02-26T05:07:14.018Z,54.77
2019-02-26T05:17:21.859Z,57.13
2019-02-26T05:27:27.494Z,55.70
2019-02-26T05:37:35.406Z,56.23
2019-02-26T05:47:42.876Z,56.10
2019-02-26T05:57:47.743Z,53.40
2019-02-26T06:07:53.564Z,57.70
2019-02-26T06:18:00.625Z,56.10
2019-02-26T06:28:07.654Z,57.00
2019-02-26T06:38:13.651Z,57.97
2019-02-26T06:48:22.347Z,56.30
2019-02-26T06:58:27.667Z,55.60
2019-02-26T07:08:36.379Z,52.87
2019-02-26T07:18:41.974Z,53.73
2019-02-26T07:28:48.715Z,53.73
2019-02-26T07:38:56.538Z,54.37
2019-02-26T07:49:04.761Z,56.20
2019-02-26T07:59:12.451Z,52.30
2019-02-26T08:09:19.418Z,61.43
2019-02-26T08:19:29.737Z,56.63
2019-02-26T08:29:34.311Z,54.47
2019-02-26T08:39:39.998Z,54.00
2019-02-26T08:49:47.500Z,54.80
2019-02-26T08:59:54.558Z,61.77
2019-02-26T09:10:00.400Z,54.57
2019-02-26T09:20:14.670Z,56.83
2019-02-26T09:30:20.608Z,61.23
2019-02-26T09:40:28.868Z,58.57
2019-02-26T09:50:33.701Z,65.77
2019-02-26T10:00:40.579Z,53.07
2019-02-26T10:10:46.900Z,50.90
2019-02-26T10:20:54.614Z,52.83
2019-02-26T10:31:04.219Z,52.17
2019-02-26T10:41:07.012Z,49.07
2019-02-26T10:51:16.733Z,50.83
2019-02-26T11:01:23.620Z,47.77
2019-02-26T11:11:30.428Z,49.70
2019-02-26T11:21:35.966Z,45.10
2019-02-26T11:31:44.575Z,57.37
2019-02-26T11:41:51.324Z,50.97
2019-02-26T11:51:57.470Z,50.33
2019-02-26T12:02:04.545Z,51.23
2019-02-26T12:12:11.597Z,49.90
2019-02-26T12:22:18.065Z,50.40
2019-02-26T12:32:26.924Z,46.50
2019-02-26T12:42:32.874Z,44.20
2019-02-26T12:52:38.727Z,48.87
2019-02-26T13:02:45.853Z,54.60
2019-02-26T13:12:55.201Z,51.70
2019-02-26T13:23:16.449Z,50.07
2019-02-26T13:33:10.811Z,50.60
2019-02-26T13:43:13.981Z,49.30
2019-02-26T13:53:20.084Z,44.50
2019-02-26T14:03:25.767Z,44.73
2019-02-26T14:13:31.754Z,46.57
2019-02-26T14:23:37.445Z,45.07
2019-02-26T14:33:43.031Z,46.90
2019-02-26T14:43:48.636Z,44.63
2019-02-26T14:53:54.315Z,45.03
2019-02-26T15:03:59.911Z,43.67
2019-02-26T15:14:05.493Z,44.37
2019-02-26T15:24:11.210Z,43.53
2019-02-26T15:34:17.121Z,50.47
2019-02-26T15:44:23.017Z,52.90
2019-02-26T15:54:28.630Z,55.23
2019-02-26T16:04:34.576Z,48.03
2019-02-26T16:14:40.333Z,52.87
2019-02-26T16:24:46.341Z,49.90
2019-02-26T16:34:52.997Z,41.87
2019-02-26T16:45:01.202Z,34.43
2019-02-26T16:55:08.949Z,31.50
2019-02-26T17:05:15.179Z,32.03
2019-02-26T17:15:26.955Z,35.20
2019-02-26T17:25:32.622Z,34.80
2019-02-26T17:35:38.341Z,37.10
2019-02-26T17:45:44.031Z,37.97
2019-02-26T17:55:50.076Z,54.30
2019-02-26T18:05:55.856Z,49.87
2019-02-26T18:16:08.953Z,59.27
2019-02-26T18:26:08.898Z,58.90
2019-02-26T18:36:14.563Z,55.67
2019-02-26T18:46:20.273Z,55.40
2019-02-26T18:56:26.001Z,54.27
2019-02-26T19:06:31.976Z,54.83
2019-02-26T19:16:37.485Z,55.00
2019-02-26T19:26:44.463Z,41.37
2019-02-26T19:36:50.534Z,47.80
2019-02-26T19:46:57.648Z,43.03
2019-02-26T19:57:03.361Z,44.23
2019-02-26T20:07:09.170Z,47.53
2019-02-26T20:17:15.044Z,43.87
2019-02-26T20:27:21.813Z,46.20
2019-02-26T20:37:29.044Z,46.20
2019-02-26T20:47:34.942Z,46.07
2019-02-26T20:57:40.806Z,50.10
2019-02-26T21:07:46.551Z,51.23
2019-02-26T21:17:52.231Z,48.37
2019-02-26T21:28:00.701Z,53.80
2019-02-26T21:38:06.810Z,45.63
2019-02-26T21:48:12.729Z,44.83
2019-02-26T21:58:18.530Z,42.30
2019-02-26T22:08:25.224Z,39.97
2019-02-26T22:18:34.053Z,36.40
2019-02-26T22:28:39.724Z,34.97
2019-02-26T22:38:49.016Z,33.23
2019-02-26T22:48:53.576Z,28.93
2019-02-26T22:58:59.378Z,29.27
2019-02-26T23:09:05.732Z,26.10
2019-02-26T23:19:13.156Z,25.33
2019-02-26T23:29:19.146Z,31.03
2019-02-26T23:39:25.891Z,28.80
2019-02-26T23:49:33.116Z,37.13
2019-02-26T23:59:38.720Z,30.70
